sensor_id;sensor_type;location;lat;lon;timestamp;P1;durP1;ratioP1;P2;durP2;ratioP2
44456;SDS011;30159;49.316;8.558;2023-11-19T00:02:24;1.63;;;1.17;;
44456;SDS011;30159;49.316;8.558;2023-11-19T00:04:51;0.87;;;0.80;;
44456;SDS011;30159;49.316;8.558;2023-11-19T00:07:18;1.10;;;0.93;;
44456;SDS011;30159;49.316;8.558;2023-11-19T00:09:46;1.17;;;1.00;;
44456;SDS011;30159;49.316;8.558;2023-11-19T00:12:13;1.00;;;0.80;;
44456;SDS011;30159;49.316;8.558;2023-11-19T00:14:39;2.30;;;0.97;;
44456;SDS011;30159;49.316;8.558;2023-11-19T00:17:06;1.13;;;0.97;;
44456;SDS011;30159;49.316;8.558;2023-11-19T00:19:33;0.90;;;0.70;;
44456;SDS011;30159;49.316;8.558;2023-11-19T00:22:00;1.00;;;0.90;;
44456;SDS011;30159;49.316;8.558;2023-11-19T00:24:28;1.00;;;0.70;;
44456;SDS011;30159;49.316;8.558;2023-11-19T00:26:56;0.80;;;0.70;;
44456;SDS011;30159;49.316;8.558;2023-11-19T00:29:23;2.30;;;0.80;;
44456;SDS011;30159;49.316;8.558;2023-11-19T00:31:50;0.80;;;0.70;;
44456;SDS011;30159;49.316;8.558;2023-11-19T00:34:17;0.80;;;0.60;;
44456;SDS011;30159;49.316;8.558;2023-11-19T00:36:46;1.27;;;0.60;;
44456;SDS011;30159;49.316;8.558;2023-11-19T00:39:13;0.87;;;0.60;;
44456;SDS011;30159;49.316;8.558;2023-11-19T00:41:41;0.97;;;0.67;;
44456;SDS011;30159;49.316;8.558;2023-11-19T00:44:09;1.10;;;0.70;;
44456;SDS011;30159;49.316;8.558;2023-11-19T00:46:35;0.70;;;0.60;;
44456;SDS011;30159;49.316;8.558;2023-11-19T00:49:02;0.77;;;0.60;;
44456;SDS011;30159;49.316;8.558;2023-11-19T00:51:29;0.80;;;0.70;;
44456;SDS011;30159;49.316;8.558;2023-11-19T00:53:57;0.70;;;0.70;;
44456;SDS011;30159;49.316;8.558;2023-11-19T00:56:24;0.90;;;0.70;;
44456;SDS011;30159;49.316;8.558;2023-11-19T00:58:50;0.90;;;0.67;;
44456;SDS011;30159;49.316;8.558;2023-11-19T01:01:18;0.90;;;0.80;;
44456;SDS011;30159;49.316;8.558;2023-11-19T01:03:45;0.80;;;0.70;;
44456;SDS011;30159;49.316;8.558;2023-11-19T01:06:12;1.00;;;0.90;;
44456;SDS011;30159;49.316;8.558;2023-11-19T01:08:39;1.70;;;0.80;;
44456;SDS011;30159;49.316;8.558;2023-11-19T01:11:05;1.53;;;1.30;;
44456;SDS011;30159;49.316;8.558;2023-11-19T01:13:33;0.80;;;0.80;;
44456;SDS011;30159;49.316;8.558;2023-11-19T01:16:00;1.00;;;0.80;;
44456;SDS011;30159;49.316;8.558;2023-11-19T01:18:28;1.00;;;0.80;;
44456;SDS011;30159;49.316;8.558;2023-11-19T01:20:55;1.00;;;0.73;;
44456;SDS011;30159;49.316;8.558;2023-11-19T01:23:21;0.80;;;0.60;;
44456;SDS011;30159;49.316;8.558;2023-11-19T01:25:48;1.37;;;0.80;;
44456;SDS011;30159;49.316;8.558;2023-11-19T01:28:15;0.90;;;0.63;;
44456;SDS011;30159;49.316;8.558;2023-11-19T01:30:41;0.63;;;0.50;;
44456;SDS011;30159;49.316;8.558;2023-11-19T01:33:08;1.43;;;0.97;;
44456;SDS011;30159;49.316;8.558;2023-11-19T01:35:36;1.03;;;0.70;;
44456;SDS011;30159;49.316;8.558;2023-11-19T01:38:04;0.60;;;0.50;;
44456;SDS011;30159;49.316;8.558;2023-11-19T01:40:32;1.53;;;0.70;;
44456;SDS011;30159;49.316;8.558;2023-11-19T01:42:59;0.80;;;0.60;;
44456;SDS011;30159;49.316;8.558;2023-11-19T01:45:27;0.90;;;0.70;;
44456;SDS011;30159;49.316;8.558;2023-11-19T01:47:55;0.80;;;0.50;;
44456;SDS011;30159;49.316;8.558;2023-11-19T01:50:22;1.13;;;0.90;;
44456;SDS011;30159;49.316;8.558;2023-11-19T01:52:51;0.80;;;0.70;;
44456;SDS011;30159;49.316;8.558;2023-11-19T01:55:19;0.90;;;0.70;;
44456;SDS011;30159;49.316;8.558;2023-11-19T01:57:46;0.83;;;0.70;;
44456;SDS011;30159;49.316;8.558;2023-11-19T02:00:14;0.80;;;0.60;;
44456;SDS011;30159;49.316;8.558;2023-11-19T02:02:42;0.83;;;0.80;;
44456;SDS011;30159;49.316;8.558;2023-11-19T02:05:09;0.87;;;0.60;;
44456;SDS011;30159;49.316;8.558;2023-11-19T02:07:38;0.70;;;0.60;;
44456;SDS011;30159;49.316;8.558;2023-11-19T02:10:06;0.70;;;0.60;;
44456;SDS011;30159;49.316;8.558;2023-11-19T02:12:38;1.40;;;0.90;;
44456;SDS011;30159;49.316;8.558;2023-11-19T02:15:08;0.80;;;0.70;;
44456;SDS011;30159;49.316;8.558;2023-11-19T02:17:35;0.97;;;0.80;;
44456;SDS011;30159;49.316;8.558;2023-11-19T02:20:03;1.00;;;0.90;;
44456;SDS011;30159;49.316;8.558;2023-11-19T02:22:31;1.20;;;1.10;;
44456;SDS011;30159;49.316;8.558;2023-11-19T02:24:59;1.60;;;1.13;;
44456;SDS011;30159;49.316;8.558;2023-11-19T02:27:39;0.90;;;0.70;;
44456;SDS011;30159;49.316;8.558;2023-11-19T02:30:10;1.10;;;0.80;;
44456;SDS011;30159;49.316;8.558;2023-11-19T02:32:40;0.93;;;0.77;;
44456;SDS011;30159;49.316;8.558;2023-11-19T02:35:07;1.33;;;1.10;;
44456;SDS011;30159;49.316;8.558;2023-11-19T02:37:34;1.23;;;1.13;;
44456;SDS011;30159;49.316;8.558;2023-11-19T02:40:00;1.27;;;1.17;;
44456;SDS011;30159;49.316;8.558;2023-11-19T02:42:28;1.00;;;0.90;;
44456;SDS011;30159;49.316;8.558;2023-11-19T02:44:56;1.20;;;0.77;;
44456;SDS011;30159;49.316;8.558;2023-11-19T02:47:23;0.90;;;0.70;;
44456;SDS011;30159;49.316;8.558;2023-11-19T02:49:50;1.07;;;0.83;;
44456;SDS011;30159;49.316;8.558;2023-11-19T02:52:18;0.80;;;0.73;;
44456;SDS011;30159;49.316;8.558;2023-11-19T02:54:45;1.00;;;0.67;;
44456;SDS011;30159;49.316;8.558;2023-11-19T02:57:11;0.90;;;0.70;;
44456;SDS011;30159;49.316;8.558;2023-11-19T02:59:38;1.03;;;0.70;;
44456;SDS011;30159;49.316;8.558;2023-11-19T03:02:09;0.73;;;0.70;;
44456;SDS011;30159;49.316;8.558;2023-11-19T03:04:37;0.80;;;0.70;;
44456;SDS011;30159;49.316;8.558;2023-11-19T03:07:04;0.90;;;0.80;;
44456;SDS011;30159;49.316;8.558;2023-11-19T03:09:32;0.90;;;0.70;;
44456;SDS011;30159;49.316;8.558;2023-11-19T03:11:59;1.00;;;0.80;;
44456;SDS011;30159;49.316;8.558;2023-11-19T03:14:25;0.70;;;0.50;;
44456;SDS011;30159;49.316;8.558;2023-11-19T03:16:52;1.43;;;0.63;;
44456;SDS011;30159;49.316;8.558;2023-11-19T03:19:20;1.20;;;0.70;;
44456;SDS011;30159;49.316;8.558;2023-11-19T03:21:47;0.70;;;0.60;;
44456;SDS011;30159;49.316;8.558;2023-11-19T03:24:13;1.97;;;0.90;;
44456;SDS011;30159;49.316;8.558;2023-11-19T03:26:40;0.90;;;0.70;;
44456;SDS011;30159;49.316;8.558;2023-11-19T03:29:07;0.80;;;0.80;;
44456;SDS011;30159;49.316;8.558;2023-11-19T03:31:34;0.90;;;0.80;;
44456;SDS011;30159;49.316;8.558;2023-11-19T03:34:01;0.73;;;0.63;;
44456;SDS011;30159;49.316;8.558;2023-11-19T03:36:32;1.00;;;0.70;;
44456;SDS011;30159;49.316;8.558;2023-11-19T03:38:59;1.00;;;0.83;;
44456;SDS011;30159;49.316;8.558;2023-11-19T03:41:26;1.40;;;0.70;;
44456;SDS011;30159;49.316;8.558;2023-11-19T03:43:53;0.90;;;0.70;;
44456;SDS011;30159;49.316;8.558;2023-11-19T03:46:19;0.70;;;0.60;;
44456;SDS011;30159;49.316;8.558;2023-11-19T03:48:46;1.70;;;0.80;;
44456;SDS011;30159;49.316;8.558;2023-11-19T03:51:14;0.90;;;0.80;;
44456;SDS011;30159;49.316;8.558;2023-11-19T03:53:42;0.80;;;0.80;;
44456;SDS011;30159;49.316;8.558;2023-11-19T03:56:09;0.80;;;0.70;;
44456;SDS011;30159;49.316;8.558;2023-11-19T03:58:36;1.00;;;0.70;;
44456;SDS011;30159;49.316;8.558;2023-11-19T04:01:04;0.70;;;0.60;;
44456;SDS011;30159;49.316;8.558;2023-11-19T04:03:31;1.07;;;0.70;;
44456;SDS011;30159;49.316;8.558;2023-11-19T04:05:58;1.10;;;0.70;;
44456;SDS011;30159;49.316;8.558;2023-11-19T04:08:24;0.70;;;0.60;;
44456;SDS011;30159;49.316;8.558;2023-11-19T04:10:52;0.90;;;0.70;;
44456;SDS011;30159;49.316;8.558;2023-11-19T04:13:19;1.00;;;0.80;;
44456;SDS011;30159;49.316;8.558;2023-11-19T04:15:45;0.70;;;0.60;;
44456;SDS011;30159;49.316;8.558;2023-11-19T04:18:12;1.17;;;0.90;;
44456;SDS011;30159;49.316;8.558;2023-11-19T04:20:39;0.80;;;0.80;;
44456;SDS011;30159;49.316;8.558;2023-11-19T04:23:07;0.70;;;0.53;;
44456;SDS011;30159;49.316;8.558;2023-11-19T04:25:34;0.90;;;0.80;;
44456;SDS011;30159;49.316;8.558;2023-11-19T04:28:02;1.93;;;0.80;;
44456;SDS011;30159;49.316;8.558;2023-11-19T04:30:29;1.00;;;0.70;;
44456;SDS011;30159;49.316;8.558;2023-11-19T04:32:56;1.00;;;0.90;;
44456;SDS011;30159;49.316;8.558;2023-11-19T04:35:23;1.00;;;0.70;;
44456;SDS011;30159;49.316;8.558;2023-11-19T04:37:51;1.00;;;0.80;;
44456;SDS011;30159;49.316;8.558;2023-11-19T04:40:18;1.93;;;1.30;;
44456;SDS011;30159;49.316;8.558;2023-11-19T04:42:47;0.70;;;0.70;;
44456;SDS011;30159;49.316;8.558;2023-11-19T04:45:15;1.10;;;0.80;;
44456;SDS011;30159;49.316;8.558;2023-11-19T04:47:42;0.77;;;0.70;;
44456;SDS011;30159;49.316;8.558;2023-11-19T04:50:09;1.00;;;0.77;;
44456;SDS011;30159;49.316;8.558;2023-11-19T04:52:37;1.77;;;0.90;;
44456;SDS011;30159;49.316;8.558;2023-11-19T04:55:05;0.97;;;0.70;;
44456;SDS011;30159;49.316;8.558;2023-11-19T04:57:32;1.30;;;0.80;;
44456;SDS011;30159;49.316;8.558;2023-11-19T04:59:59;0.70;;;0.70;;
44456;SDS011;30159;49.316;8.558;2023-11-19T05:02:27;1.27;;;0.90;;
44456;SDS011;30159;49.316;8.558;2023-11-19T05:04:53;1.10;;;0.90;;
44456;SDS011;30159;49.316;8.558;2023-11-19T05:07:20;1.10;;;0.90;;
44456;SDS011;30159;49.316;8.558;2023-11-19T05:09:46;1.10;;;1.00;;
44456;SDS011;30159;49.316;8.558;2023-11-19T05:12:13;1.60;;;1.50;;
44456;SDS011;30159;49.316;8.558;2023-11-19T05:14:40;4.07;;;1.30;;
44456;SDS011;30159;49.316;8.558;2023-11-19T05:17:13;1.80;;;1.20;;
44456;SDS011;30159;49.316;8.558;2023-11-19T05:19:41;3.53;;;1.27;;
44456;SDS011;30159;49.316;8.558;2023-11-19T05:22:07;1.13;;;1.03;;
44456;SDS011;30159;49.316;8.558;2023-11-19T05:24:34;2.60;;;1.03;;
44456;SDS011;30159;49.316;8.558;2023-11-19T05:27:01;1.10;;;1.00;;
44456;SDS011;30159;49.316;8.558;2023-11-19T05:29:27;1.00;;;0.90;;
44456;SDS011;30159;49.316;8.558;2023-11-19T05:31:54;2.30;;;0.90;;
44456;SDS011;30159;49.316;8.558;2023-11-19T05:34:21;1.30;;;0.80;;
44456;SDS011;30159;49.316;8.558;2023-11-19T05:36:49;1.20;;;0.90;;
44456;SDS011;30159;49.316;8.558;2023-11-19T05:39:15;1.20;;;0.90;;
44456;SDS011;30159;49.316;8.558;2023-11-19T05:41:43;0.90;;;0.80;;
44456;SDS011;30159;49.316;8.558;2023-11-19T05:44:10;1.40;;;1.00;;
44456;SDS011;30159;49.316;8.558;2023-11-19T05:46:36;1.30;;;1.00;;
44456;SDS011;30159;49.316;8.558;2023-11-19T05:49:07;1.40;;;0.90;;
44456;SDS011;30159;49.316;8.558;2023-11-19T05:51:36;0.97;;;0.87;;
44456;SDS011;30159;49.316;8.558;2023-11-19T05:56:34;0.93;;;0.73;;
44456;SDS011;30159;49.316;8.558;2023-11-19T05:59:01;1.10;;;0.73;;
44456;SDS011;30159;49.316;8.558;2023-11-19T06:01:31;1.47;;;0.80;;
44456;SDS011;30159;49.316;8.558;2023-11-19T06:03:58;0.83;;;0.70;;
44456;SDS011;30159;49.316;8.558;2023-11-19T06:06:26;0.90;;;0.67;;
44456;SDS011;30159;49.316;8.558;2023-11-19T06:08:52;0.80;;;0.80;;
44456;SDS011;30159;49.316;8.558;2023-11-19T06:11:21;2.60;;;0.60;;
44456;SDS011;30159;49.316;8.558;2023-11-19T06:13:48;1.03;;;0.93;;
44456;SDS011;30159;49.316;8.558;2023-11-19T06:16:16;1.03;;;0.70;;
44456;SDS011;30159;49.316;8.558;2023-11-19T06:18:42;0.93;;;0.80;;
44456;SDS011;30159;49.316;8.558;2023-11-19T06:21:09;1.83;;;0.90;;
44456;SDS011;30159;49.316;8.558;2023-11-19T06:23:36;1.53;;;0.70;;
44456;SDS011;30159;49.316;8.558;2023-11-19T06:26:03;2.30;;;0.70;;
44456;SDS011;30159;49.316;8.558;2023-11-19T06:28:31;0.70;;;0.60;;
44456;SDS011;30159;49.316;8.558;2023-11-19T06:30:58;1.20;;;0.80;;
44456;SDS011;30159;49.316;8.558;2023-11-19T06:33:24;0.70;;;0.60;;
44456;SDS011;30159;49.316;8.558;2023-11-19T06:35:52;1.00;;;0.70;;
44456;SDS011;30159;49.316;8.558;2023-11-19T06:38:19;0.67;;;0.57;;
44456;SDS011;30159;49.316;8.558;2023-11-19T06:40:46;1.20;;;0.80;;
44456;SDS011;30159;49.316;8.558;2023-11-19T06:43:13;1.10;;;0.80;;
44456;SDS011;30159;49.316;8.558;2023-11-19T06:45:41;0.83;;;0.60;;
44456;SDS011;30159;49.316;8.558;2023-11-19T06:48:08;0.90;;;0.70;;
44456;SDS011;30159;49.316;8.558;2023-11-19T06:50:35;1.20;;;0.60;;
44456;SDS011;30159;49.316;8.558;2023-11-19T06:53:01;0.90;;;0.70;;
44456;SDS011;30159;49.316;8.558;2023-11-19T06:55:28;0.80;;;0.50;;
44456;SDS011;30159;49.316;8.558;2023-11-19T06:57:55;0.80;;;0.60;;
44456;SDS011;30159;49.316;8.558;2023-11-19T07:00:22;0.70;;;0.50;;
44456;SDS011;30159;49.316;8.558;2023-11-19T07:02:50;0.70;;;0.60;;
44456;SDS011;30159;49.316;8.558;2023-11-19T07:05:16;1.10;;;0.60;;
44456;SDS011;30159;49.316;8.558;2023-11-19T07:07:44;0.73;;;0.50;;
44456;SDS011;30159;49.316;8.558;2023-11-19T07:10:11;0.60;;;0.50;;
44456;SDS011;30159;49.316;8.558;2023-11-19T07:12:38;0.60;;;0.50;;
44456;SDS011;30159;49.316;8.558;2023-11-19T07:15:05;0.77;;;0.50;;
44456;SDS011;30159;49.316;8.558;2023-11-19T07:17:34;0.70;;;0.50;;
44456;SDS011;30159;49.316;8.558;2023-11-19T07:20:03;0.60;;;0.50;;
44456;SDS011;30159;49.316;8.558;2023-11-19T07:22:31;0.80;;;0.70;;
44456;SDS011;30159;49.316;8.558;2023-11-19T07:24:57;0.70;;;0.50;;
44456;SDS011;30159;49.316;8.558;2023-11-19T07:27:24;0.60;;;0.33;;
44456;SDS011;30159;49.316;8.558;2023-11-19T07:29:51;0.60;;;0.40;;
44456;SDS011;30159;49.316;8.558;2023-11-19T07:32:17;0.60;;;0.50;;
44456;SDS011;30159;49.316;8.558;2023-11-19T07:34:44;0.77;;;0.60;;
44456;SDS011;30159;49.316;8.558;2023-11-19T07:37:12;1.03;;;0.53;;
44456;SDS011;30159;49.316;8.558;2023-11-19T07:39:38;0.80;;;0.60;;
44456;SDS011;30159;49.316;8.558;2023-11-19T07:42:06;0.60;;;0.43;;
44456;SDS011;30159;49.316;8.558;2023-11-19T07:44:34;2.00;;;0.50;;
44456;SDS011;30159;49.316;8.558;2023-11-19T07:47:01;0.70;;;0.50;;
44456;SDS011;30159;49.316;8.558;2023-11-19T07:49:28;0.60;;;0.50;;
44456;SDS011;30159;49.316;8.558;2023-11-19T07:51:55;0.83;;;0.60;;
44456;SDS011;30159;49.316;8.558;2023-11-19T07:54:23;0.70;;;0.50;;
44456;SDS011;30159;49.316;8.558;2023-11-19T07:56:50;0.60;;;0.43;;
44456;SDS011;30159;49.316;8.558;2023-11-19T07:59:17;0.80;;;0.53;;
44456;SDS011;30159;49.316;8.558;2023-11-19T08:01:43;0.80;;;0.50;;
44456;SDS011;30159;49.316;8.558;2023-11-19T08:04:10;0.90;;;0.70;;
44456;SDS011;30159;49.316;8.558;2023-11-19T08:06:37;1.00;;;0.60;;
44456;SDS011;30159;49.316;8.558;2023-11-19T08:09:04;0.50;;;0.30;;
44456;SDS011;30159;49.316;8.558;2023-11-19T08:11:32;0.90;;;0.60;;
44456;SDS011;30159;49.316;8.558;2023-11-19T08:13:59;0.70;;;0.50;;
44456;SDS011;30159;49.316;8.558;2023-11-19T08:16:26;0.90;;;0.50;;
44456;SDS011;30159;49.316;8.558;2023-11-19T08:18:52;1.67;;;0.67;;
44456;SDS011;30159;49.316;8.558;2023-11-19T08:21:19;0.90;;;0.67;;
44456;SDS011;30159;49.316;8.558;2023-11-19T08:23:47;0.67;;;0.50;;
44456;SDS011;30159;49.316;8.558;2023-11-19T08:26:14;1.13;;;0.70;;
44456;SDS011;30159;49.316;8.558;2023-11-19T08:28:42;0.70;;;0.50;;
44456;SDS011;30159;49.316;8.558;2023-11-19T08:31:09;0.60;;;0.50;;
44456;SDS011;30159;49.316;8.558;2023-11-19T08:33:36;0.60;;;0.60;;
44456;SDS011;30159;49.316;8.558;2023-11-19T08:36:03;0.60;;;0.40;;
44456;SDS011;30159;49.316;8.558;2023-11-19T08:38:30;0.63;;;0.50;;
44456;SDS011;30159;49.316;8.558;2023-11-19T08:40:57;0.60;;;0.50;;
44456;SDS011;30159;49.316;8.558;2023-11-19T08:43:26;1.10;;;0.60;;
44456;SDS011;30159;49.316;8.558;2023-11-19T08:45:54;0.73;;;0.60;;
44456;SDS011;30159;49.316;8.558;2023-11-19T08:48:20;0.70;;;0.50;;
44456;SDS011;30159;49.316;8.558;2023-11-19T08:50:47;1.00;;;0.50;;
44456;SDS011;30159;49.316;8.558;2023-11-19T08:53:14;0.70;;;0.50;;
44456;SDS011;30159;49.316;8.558;2023-11-19T08:55:40;0.60;;;0.50;;
44456;SDS011;30159;49.316;8.558;2023-11-19T08:58:07;1.07;;;0.57;;
44456;SDS011;30159;49.316;8.558;2023-11-19T09:00:33;0.70;;;0.50;;
44456;SDS011;30159;49.316;8.558;2023-11-19T09:03:02;0.60;;;0.50;;
44456;SDS011;30159;49.316;8.558;2023-11-19T09:05:29;0.70;;;0.57;;
44456;SDS011;30159;49.316;8.558;2023-11-19T09:07:55;1.87;;;0.60;;
44456;SDS011;30159;49.316;8.558;2023-11-19T09:10:22;0.80;;;0.60;;
44456;SDS011;30159;49.316;8.558;2023-11-19T09:12:48;0.90;;;0.70;;
44456;SDS011;30159;49.316;8.558;2023-11-19T09:15:15;0.67;;;0.47;;
44456;SDS011;30159;49.316;8.558;2023-11-19T09:17:42;0.70;;;0.50;;
44456;SDS011;30159;49.316;8.558;2023-11-19T09:20:10;0.60;;;0.47;;
44456;SDS011;30159;49.316;8.558;2023-11-19T09:22:40;0.80;;;0.53;;
44456;SDS011;30159;49.316;8.558;2023-11-19T09:25:07;0.77;;;0.60;;
44456;SDS011;30159;49.316;8.558;2023-11-19T09:27:34;0.63;;;0.53;;
44456;SDS011;30159;49.316;8.558;2023-11-19T09:30:01;0.80;;;0.60;;
44456;SDS011;30159;49.316;8.558;2023-11-19T09:32:28;0.70;;;0.50;;
44456;SDS011;30159;49.316;8.558;2023-11-19T09:34:55;0.77;;;0.63;;
44456;SDS011;30159;49.316;8.558;2023-11-19T09:37:23;0.93;;;0.70;;
44456;SDS011;30159;49.316;8.558;2023-11-19T09:39:50;1.43;;;0.60;;
44456;SDS011;30159;49.316;8.558;2023-11-19T09:42:16;0.87;;;0.60;;
44456;SDS011;30159;49.316;8.558;2023-11-19T09:44:43;0.80;;;0.70;;
44456;SDS011;30159;49.316;8.558;2023-11-19T09:47:11;0.87;;;0.60;;
44456;SDS011;30159;49.316;8.558;2023-11-19T09:49:38;0.90;;;0.63;;
44456;SDS011;30159;49.316;8.558;2023-11-19T09:52:05;0.80;;;0.53;;
44456;SDS011;30159;49.316;8.558;2023-11-19T09:54:33;0.73;;;0.70;;
44456;SDS011;30159;49.316;8.558;2023-11-19T09:57:00;1.63;;;0.60;;
44456;SDS011;30159;49.316;8.558;2023-11-19T09:59:29;0.87;;;0.60;;
44456;SDS011;30159;49.316;8.558;2023-11-19T10:01:56;0.97;;;0.73;;
44456;SDS011;30159;49.316;8.558;2023-11-19T10:04:23;0.70;;;0.50;;
44456;SDS011;30159;49.316;8.558;2023-11-19T10:06:51;0.70;;;0.60;;
44456;SDS011;30159;49.316;8.558;2023-11-19T10:09:18;1.00;;;0.70;;
44456;SDS011;30159;49.316;8.558;2023-11-19T10:11:46;2.97;;;0.70;;
44456;SDS011;30159;49.316;8.558;2023-11-19T10:14:12;0.90;;;0.60;;
44456;SDS011;30159;49.316;8.558;2023-11-19T10:16:41;0.80;;;0.80;;
44456;SDS011;30159;49.316;8.558;2023-11-19T10:19:08;1.00;;;0.50;;
44456;SDS011;30159;49.316;8.558;2023-11-19T10:21:38;1.23;;;0.60;;
44456;SDS011;30159;49.316;8.558;2023-11-19T10:24:05;0.90;;;0.67;;
44456;SDS011;30159;49.316;8.558;2023-11-19T10:26:32;4.40;;;0.70;;
44456;SDS011;30159;49.316;8.558;2023-11-19T10:29:00;0.70;;;0.60;;
44456;SDS011;30159;49.316;8.558;2023-11-19T10:31:27;0.83;;;0.50;;
44456;SDS011;30159;49.316;8.558;2023-11-19T10:33:54;0.80;;;0.60;;
44456;SDS011;30159;49.316;8.558;2023-11-19T10:36:21;3.17;;;1.47;;
44456;SDS011;30159;49.316;8.558;2023-11-19T10:38:52;1.77;;;0.70;;
44456;SDS011;30159;49.316;8.558;2023-11-19T10:41:26;0.60;;;0.50;;
44456;SDS011;30159;49.316;8.558;2023-11-19T10:43:53;0.70;;;0.60;;
44456;SDS011;30159;49.316;8.558;2023-11-19T10:46:21;0.90;;;0.67;;
44456;SDS011;30159;49.316;8.558;2023-11-19T10:48:48;0.60;;;0.60;;
44456;SDS011;30159;49.316;8.558;2023-11-19T10:51:18;0.90;;;0.60;;
44456;SDS011;30159;49.316;8.558;2023-11-19T10:53:46;0.80;;;0.60;;
44456;SDS011;30159;49.316;8.558;2023-11-19T10:56:16;9.13;;;0.80;;
44456;SDS011;30159;49.316;8.558;2023-11-19T10:58:44;0.70;;;0.60;;
44456;SDS011;30159;49.316;8.558;2023-11-19T11:01:13;0.90;;;0.77;;
44456;SDS011;30159;49.316;8.558;2023-11-19T11:03:42;0.90;;;0.70;;
44456;SDS011;30159;49.316;8.558;2023-11-19T11:06:11;0.70;;;0.50;;
44456;SDS011;30159;49.316;8.558;2023-11-19T11:08:39;1.60;;;0.80;;
44456;SDS011;30159;49.316;8.558;2023-11-19T11:11:07;0.80;;;0.60;;
44456;SDS011;30159;49.316;8.558;2023-11-19T11:13:35;0.90;;;0.67;;
44456;SDS011;30159;49.316;8.558;2023-11-19T11:16:06;1.80;;;0.77;;
44456;SDS011;30159;49.316;8.558;2023-11-19T11:18:33;1.03;;;0.70;;
44456;SDS011;30159;49.316;8.558;2023-11-19T11:21:02;0.83;;;0.80;;
44456;SDS011;30159;49.316;8.558;2023-11-19T11:26:48;1.57;;;0.90;;
44456;SDS011;30159;49.316;8.558;2023-11-19T11:29:24;0.80;;;0.80;;
44456;SDS011;30159;49.316;8.558;2023-11-19T11:32:00;0.90;;;0.70;;
44456;SDS011;30159;49.316;8.558;2023-11-19T11:34:40;0.70;;;0.50;;
44456;SDS011;30159;49.316;8.558;2023-11-19T11:37:24;1.60;;;0.60;;
44456;SDS011;30159;49.316;8.558;2023-11-19T11:39:56;0.97;;;0.50;;
44456;SDS011;30159;49.316;8.558;2023-11-19T11:42:34;0.87;;;0.50;;
44456;SDS011;30159;49.316;8.558;2023-11-19T11:45:02;0.70;;;0.50;;
44456;SDS011;30159;49.316;8.558;2023-11-19T11:50:52;1.53;;;0.73;;
44456;SDS011;30159;49.316;8.558;2023-11-19T11:53:22;0.87;;;0.80;;
44456;SDS011;30159;49.316;8.558;2023-11-19T11:55:54;0.80;;;0.70;;
44456;SDS011;30159;49.316;8.558;2023-11-19T11:58:31;0.80;;;0.70;;
44456;SDS011;30159;49.316;8.558;2023-11-19T12:01:01;2.37;;;0.70;;
44456;SDS011;30159;49.316;8.558;2023-11-19T12:03:30;0.83;;;0.60;;
44456;SDS011;30159;49.316;8.558;2023-11-19T12:05:58;1.17;;;0.80;;
44456;SDS011;30159;49.316;8.558;2023-11-19T12:08:27;0.73;;;0.70;;
44456;SDS011;30159;49.316;8.558;2023-11-19T12:10:56;2.70;;;0.70;;
44456;SDS011;30159;49.316;8.558;2023-11-19T12:13:24;1.17;;;1.07;;
44456;SDS011;30159;49.316;8.558;2023-11-19T12:16:09;1.00;;;0.50;;
44456;SDS011;30159;49.316;8.558;2023-11-19T12:18:38;0.70;;;0.60;;
44456;SDS011;30159;49.316;8.558;2023-11-19T12:21:06;0.70;;;0.60;;
44456;SDS011;30159;49.316;8.558;2023-11-19T12:23:36;1.93;;;0.70;;
44456;SDS011;30159;49.316;8.558;2023-11-19T12:26:20;1.70;;;0.73;;
44456;SDS011;30159;49.316;8.558;2023-11-19T12:29:00;1.00;;;0.70;;
44456;SDS011;30159;49.316;8.558;2023-11-19T12:31:28;0.67;;;0.53;;
44456;SDS011;30159;49.316;8.558;2023-11-19T12:33:55;1.20;;;0.90;;
44456;SDS011;30159;49.316;8.558;2023-11-19T12:36:22;2.67;;;0.90;;
44456;SDS011;30159;49.316;8.558;2023-11-19T12:38:50;1.67;;;1.23;;
44456;SDS011;30159;49.316;8.558;2023-11-19T12:41:17;1.60;;;1.40;;
44456;SDS011;30159;49.316;8.558;2023-11-19T12:43:47;0.80;;;0.70;;
44456;SDS011;30159;49.316;8.558;2023-11-19T12:46:17;1.00;;;0.70;;
44456;SDS011;30159;49.316;8.558;2023-11-19T12:48:45;2.80;;;1.03;;
44456;SDS011;30159;49.316;8.558;2023-11-19T12:51:12;4.93;;;1.10;;
44456;SDS011;30159;49.316;8.558;2023-11-19T12:53:47;0.80;;;0.80;;
44456;SDS011;30159;49.316;8.558;2023-11-19T12:56:16;1.17;;;1.07;;
44456;SDS011;30159;49.316;8.558;2023-11-19T12:58:43;5.13;;;0.97;;
44456;SDS011;30159;49.316;8.558;2023-11-19T13:01:14;0.80;;;0.70;;
44456;SDS011;30159;49.316;8.558;2023-11-19T13:03:42;1.50;;;1.20;;
44456;SDS011;30159;49.316;8.558;2023-11-19T13:06:09;1.00;;;0.90;;
44456;SDS011;30159;49.316;8.558;2023-11-19T13:08:37;1.80;;;0.83;;
44456;SDS011;30159;49.316;8.558;2023-11-19T13:11:04;1.00;;;0.90;;
44456;SDS011;30159;49.316;8.558;2023-11-19T13:13:49;1.20;;;1.10;;
44456;SDS011;30159;49.316;8.558;2023-11-19T13:16:25;1.20;;;1.10;;
44456;SDS011;30159;49.316;8.558;2023-11-19T13:18:53;2.20;;;1.67;;
44456;SDS011;30159;49.316;8.558;2023-11-19T13:21:20;5.20;;;1.27;;
44456;SDS011;30159;49.316;8.558;2023-11-19T13:23:47;4.43;;;1.67;;
44456;SDS011;30159;49.316;8.558;2023-11-19T13:26:13;1.80;;;1.10;;
44456;SDS011;30159;49.316;8.558;2023-11-19T13:28:41;1.27;;;1.17;;
44456;SDS011;30159;49.316;8.558;2023-11-19T13:31:08;1.30;;;1.20;;
44456;SDS011;30159;49.316;8.558;2023-11-19T13:33:35;2.00;;;1.43;;
44456;SDS011;30159;49.316;8.558;2023-11-19T13:36:02;1.03;;;0.93;;
44456;SDS011;30159;49.316;8.558;2023-11-19T13:38:31;1.07;;;0.97;;
44456;SDS011;30159;49.316;8.558;2023-11-19T13:40:58;1.40;;;1.27;;
44456;SDS011;30159;49.316;8.558;2023-11-19T13:43:25;2.93;;;1.33;;
44456;SDS011;30159;49.316;8.558;2023-11-19T13:45:54;1.57;;;1.30;;
44456;SDS011;30159;49.316;8.558;2023-11-19T13:48:21;2.50;;;1.40;;
44456;SDS011;30159;49.316;8.558;2023-11-19T13:50:48;3.13;;;1.20;;
44456;SDS011;30159;49.316;8.558;2023-11-19T13:53:15;1.00;;;0.90;;
44456;SDS011;30159;49.316;8.558;2023-11-19T13:55:41;0.90;;;0.80;;
44456;SDS011;30159;49.316;8.558;2023-11-19T13:58:08;1.10;;;0.90;;
44456;SDS011;30159;49.316;8.558;2023-11-19T14:00:35;1.17;;;1.00;;
44456;SDS011;30159;49.316;8.558;2023-11-19T14:03:03;1.07;;;0.80;;
44456;SDS011;30159;49.316;8.558;2023-11-19T14:05:29;0.80;;;0.60;;
44456;SDS011;30159;49.316;8.558;2023-11-19T14:07:56;0.90;;;0.70;;
44456;SDS011;30159;49.316;8.558;2023-11-19T14:10:23;1.10;;;0.70;;
44456;SDS011;30159;49.316;8.558;2023-11-19T14:12:50;1.30;;;1.00;;
44456;SDS011;30159;49.316;8.558;2023-11-19T14:15:16;1.47;;;1.10;;
44456;SDS011;30159;49.316;8.558;2023-11-19T14:17:43;1.47;;;0.70;;
44456;SDS011;30159;49.316;8.558;2023-11-19T14:20:11;0.83;;;0.53;;
44456;SDS011;30159;49.316;8.558;2023-11-19T14:22:39;1.17;;;0.90;;
44456;SDS011;30159;49.316;8.558;2023-11-19T14:25:06;0.80;;;0.50;;
44456;SDS011;30159;49.316;8.558;2023-11-19T14:27:35;0.70;;;0.60;;
44456;SDS011;30159;49.316;8.558;2023-11-19T14:30:03;1.13;;;1.03;;
44456;SDS011;30159;49.316;8.558;2023-11-19T14:32:31;1.10;;;0.80;;
44456;SDS011;30159;49.316;8.558;2023-11-19T14:34:58;1.17;;;0.70;;
44456;SDS011;30159;49.316;8.558;2023-11-19T14:37:26;5.33;;;0.70;;
44456;SDS011;30159;49.316;8.558;2023-11-19T14:39:52;0.90;;;0.70;;
44456;SDS011;30159;49.316;8.558;2023-11-19T14:42:19;1.00;;;0.70;;
44456;SDS011;30159;49.316;8.558;2023-11-19T14:44:46;0.80;;;0.70;;
44456;SDS011;30159;49.316;8.558;2023-11-19T14:47:12;1.33;;;0.60;;
44456;SDS011;30159;49.316;8.558;2023-11-19T14:49:39;1.10;;;0.70;;
44456;SDS011;30159;49.316;8.558;2023-11-19T14:52:06;2.93;;;0.67;;
44456;SDS011;30159;49.316;8.558;2023-11-19T14:54:34;5.83;;;1.10;;
44456;SDS011;30159;49.316;8.558;2023-11-19T14:57:01;0.80;;;0.80;;
44456;SDS011;30159;49.316;8.558;2023-11-19T14:59:28;3.33;;;0.60;;
44456;SDS011;30159;49.316;8.558;2023-11-19T15:01:55;0.90;;;0.70;;